createdAt,value
2023-04-19T00:00:05.300Z,20.53
2023-04-19T00:01:05.360Z,20.53
2023-04-19T00:02:05.465Z,20.53
2023-04-19T00:03:05.652Z,20.53
2023-04-19T00:04:05.667Z,20.53
2023-04-19T00:05:05.799Z,20.52
2023-04-19T00:06:05.671Z,20.53
2023-04-19T00:07:05.745Z,20.52
2023-04-19T00:08:05.814Z,20.53
2023-04-19T00:09:05.874Z,20.51
2023-04-19T00:10:05.929Z,20.52
2023-04-19T00:11:05.975Z,20.52
2023-04-19T00:12:06.041Z,20.51
2023-04-19T00:13:06.107Z,20.51
2023-04-19T00:14:06.176Z,20.51
2023-04-19T00:15:06.233Z,20.51
2023-04-19T00:16:06.314Z,20.51
2023-04-19T00:17:06.476Z,20.50
2023-04-19T00:18:06.494Z,20.51
2023-04-19T00:19:06.498Z,20.50
2023-04-19T00:20:06.565Z,20.50
2023-04-19T00:21:06.625Z,20.49
2023-04-19T00:22:06.694Z,20.50
2023-04-19T00:23:06.763Z,20.50
2023-04-19T00:24:06.832Z,20.49
2023-04-19T00:25:06.892Z,20.50
2023-04-19T00:26:06.962Z,20.49
2023-04-19T00:27:07.033Z,20.49
2023-04-19T00:28:07.094Z,20.49
2023-04-19T00:29:07.164Z,20.49
2023-04-19T00:30:07.212Z,20.48
2023-04-19T00:31:07.309Z,20.49
2023-04-19T00:32:07.349Z,20.49
2023-04-19T00:33:07.466Z,20.49
2023-04-19T00:34:07.485Z,20.48
2023-04-19T00:35:07.556Z,20.48
2023-04-19T00:36:07.613Z,20.47
2023-04-19T00:37:07.665Z,20.48
2023-04-19T00:38:07.739Z,20.48
2023-04-19T00:39:07.802Z,20.47
2023-04-19T00:40:07.871Z,20.47
2023-04-19T00:41:07.930Z,20.47
2023-04-19T00:42:08.006Z,20.47
2023-04-19T00:43:08.061Z,20.47
2023-04-19T00:44:08.143Z,20.47
2023-04-19T00:45:08.194Z,20.46
2023-04-19T00:46:08.295Z,20.46
2023-04-19T00:47:08.338Z,20.46
2023-04-19T00:48:08.430Z,20.46
2023-04-19T00:49:08.461Z,20.46
2023-04-19T00:50:08.531Z,20.46
2023-04-19T00:51:08.582Z,20.45
2023-04-19T00:52:08.646Z,20.45
2023-04-19T00:53:08.710Z,20.45
2023-04-19T00:54:08.769Z,20.45
2023-04-19T00:55:08.838Z,20.45
2023-04-19T00:56:08.909Z,20.45
2023-04-19T00:57:08.979Z,20.45
2023-04-19T00:58:09.041Z,20.44
2023-04-19T00:59:09.102Z,20.44
2023-04-19T01:00:09.173Z,20.44
2023-04-19T01:01:09.241Z,20.43
2023-04-19T01:02:09.332Z,20.43
2023-04-19T01:03:09.531Z,20.43
2023-04-19T01:04:09.510Z,20.43
2023-04-19T01:05:09.489Z,20.42
2023-04-19T01:06:09.600Z,20.42
2023-04-19T01:07:10.499Z,20.42
2023-04-19T01:08:09.705Z,20.42
2023-04-19T01:09:09.769Z,20.42
2023-04-19T01:10:09.893Z,20.42
2023-04-19T01:11:09.911Z,20.43
2023-04-19T01:12:09.984Z,20.42
2023-04-19T01:13:10.053Z,20.41
2023-04-19T01:14:10.130Z,20.42
2023-04-19T01:15:10.190Z,20.42
2023-04-19T01:16:10.300Z,20.42
2023-04-19T01:17:10.328Z,20.41
2023-04-19T01:18:10.405Z,20.41
2023-04-19T01:19:10.489Z,20.41
2023-04-19T01:20:10.558Z,20.42
2023-04-19T01:21:10.631Z,20.41
2023-04-19T01:22:10.680Z,20.40
2023-04-19T01:23:10.753Z,20.40
2023-04-19T01:24:10.824Z,20.41
2023-04-19T01:25:10.896Z,20.40
2023-04-19T01:26:11.016Z,20.41
2023-04-19T01:27:11.036Z,20.40
2023-04-19T01:28:11.105Z,20.41
2023-04-19T01:29:11.176Z,20.40
2023-04-19T01:30:11.239Z,20.40
2023-04-19T01:31:11.336Z,20.41
2023-04-19T01:32:11.404Z,20.41
2023-04-19T01:33:11.474Z,20.41
2023-04-19T01:34:11.550Z,20.40
2023-04-19T01:35:11.611Z,20.40
2023-04-19T01:36:11.691Z,20.41
2023-04-19T01:37:11.756Z,20.41
2023-04-19T01:38:11.842Z,20.42
2023-04-19T01:39:11.917Z,20.42
2023-04-19T01:40:11.988Z,20.41
2023-04-19T01:41:12.051Z,20.43
2023-04-19T01:42:12.118Z,20.43
2023-04-19T01:43:12.195Z,20.43
2023-04-19T01:44:12.371Z,20.43
2023-04-19T01:45:12.324Z,20.43
2023-04-19T01:46:12.400Z,20.43
2023-04-19T01:47:12.483Z,20.43
2023-04-19T01:48:12.515Z,20.43
2023-04-19T01:49:12.594Z,20.43
2023-04-19T01:50:12.665Z,20.43
2023-04-19T01:51:12.710Z,20.43
2023-04-19T01:52:12.798Z,20.43
2023-04-19T01:53:12.913Z,20.43
2023-04-19T01:54:13.093Z,20.44
2023-04-19T01:55:12.964Z,20.44
2023-04-19T01:56:13.035Z,20.44
2023-04-19T01:57:13.088Z,20.44
2023-04-19T01:58:13.154Z,20.44
2023-04-19T01:59:13.208Z,20.44
2023-04-19T02:00:13.289Z,20.43
2023-04-19T02:01:13.349Z,20.43
2023-04-19T02:02:13.472Z,20.43
2023-04-19T02:03:13.529Z,20.43
2023-04-19T02:04:13.787Z,20.43
2023-04-19T02:05:13.590Z,20.43
2023-04-19T02:06:13.646Z,20.44
2023-04-19T02:07:13.709Z,20.44
2023-04-19T02:08:13.789Z,20.44
2023-04-19T02:09:13.840Z,20.44
2023-04-19T02:10:13.895Z,20.44
2023-04-19T02:11:13.953Z,20.44
2023-04-19T02:12:14.020Z,20.43
2023-04-19T02:13:14.070Z,20.44
2023-04-19T02:14:14.333Z,20.44
2023-04-19T02:15:14.197Z,20.43
2023-04-19T02:16:14.324Z,20.43
2023-04-19T02:17:14.316Z,20.44
2023-04-19T02:18:14.382Z,20.44
2023-04-19T02:19:14.452Z,20.45
2023-04-19T02:20:14.498Z,20.44
2023-04-19T02:21:14.561Z,20.44
2023-04-19T02:22:14.621Z,20.45
2023-04-19T02:23:14.676Z,20.44
2023-04-19T02:24:15.028Z,20.44
2023-04-19T02:25:14.800Z,20.44
2023-04-19T02:26:14.847Z,20.45
2023-04-19T02:27:14.912Z,20.45
2023-04-19T02:28:14.958Z,20.45
2023-04-19T02:29:15.018Z,20.45
2023-04-19T02:30:15.078Z,20.45
2023-04-19T02:31:15.167Z,20.45
2023-04-19T02:32:15.205Z,20.45
2023-04-19T02:33:15.258Z,20.45
2023-04-19T02:34:15.580Z,20.45
2023-04-19T02:35:15.378Z,20.45
2023-04-19T02:36:15.420Z,20.45
2023-04-19T02:37:15.497Z,20.45
2023-04-19T02:38:15.576Z,20.45
2023-04-19T02:39:15.611Z,20.45
2023-04-19T02:40:15.675Z,20.46
2023-04-19T02:41:15.737Z,20.46
2023-04-19T02:42:15.776Z,20.46
2023-04-19T02:43:15.838Z,20.46
2023-04-19T02:44:16.211Z,20.46
2023-04-19T02:45:15.929Z,20.45
2023-04-19T02:46:16.027Z,20.46
2023-04-19T02:47:16.043Z,20.46
2023-04-19T02:48:16.125Z,20.46
2023-04-19T02:49:16.174Z,20.45
2023-04-19T02:50:16.217Z,20.46
2023-04-19T02:51:16.273Z,20.46
2023-04-19T02:52:16.338Z,20.46
2023-04-19T02:53:16.402Z,20.46
2023-04-19T02:54:16.571Z,20.47
2023-04-19T02:55:16.504Z,20.47
2023-04-19T02:56:16.608Z,20.47
2023-04-19T02:57:16.637Z,20.46
2023-04-19T02:58:16.673Z,20.47
2023-04-19T02:59:16.732Z,20.47
2023-04-19T03:00:16.801Z,20.46
2023-04-19T03:01:16.907Z,20.47
2023-04-19T03:02:16.963Z,20.46
2023-04-19T03:03:17.093Z,20.47
2023-04-19T03:04:17.190Z,20.47
2023-04-19T03:05:17.090Z,20.46
2023-04-19T03:06:17.135Z,20.46
2023-04-19T03:07:17.181Z,20.47
2023-04-19T03:08:17.244Z,20.46
2023-04-19T03:09:17.289Z,20.46
2023-04-19T03:10:17.370Z,20.47
2023-04-19T03:11:17.387Z,20.46
2023-04-19T03:12:17.435Z,20.47
2023-04-19T03:13:17.498Z,20.46
2023-04-19T03:14:17.703Z,20.46
2023-04-19T03:15:17.592Z,20.46
2023-04-19T03:16:17.746Z,20.46
2023-04-19T03:17:17.740Z,20.46
2023-04-19T03:18:17.765Z,20.47
2023-04-19T03:19:17.824Z,20.46
2023-04-19T03:20:17.871Z,20.46
2023-04-19T03:21:17.931Z,20.47
2023-04-19T03:22:17.973Z,20.47
2023-04-19T03:23:18.038Z,20.47
2023-04-19T03:24:18.096Z,20.47
2023-04-19T03:25:18.281Z,20.46
2023-04-19T03:26:18.227Z,20.47
2023-04-19T03:27:18.253Z,20.46
2023-04-19T03:28:18.311Z,20.47
2023-04-19T03:29:18.376Z,20.46
2023-04-19T03:30:18.424Z,20.46
2023-04-19T03:31:18.551Z,20.46
2023-04-19T03:32:18.549Z,20.46
2023-04-19T03:33:18.584Z,20.46
2023-04-19T03:34:18.646Z,20.47
2023-04-19T03:35:18.706Z,20.46
2023-04-19T03:36:18.764Z,20.47
2023-04-19T03:37:18.808Z,20.46
2023-04-19T03:38:18.880Z,20.46
2023-04-19T03:39:18.934Z,20.46
2023-04-19T03:40:19.007Z,20.46
2023-04-19T03:41:19.024Z,20.46
2023-04-19T03:42:19.094Z,20.46
2023-04-19T03:43:19.149Z,20.46
2023-04-19T03:44:19.196Z,20.47
2023-04-19T03:45:19.261Z,20.46
2023-04-19T03:46:19.375Z,20.46
2023-04-19T03:47:19.438Z,20.46
2023-04-19T03:48:19.431Z,20.46
2023-04-19T03:49:19.484Z,20.45
2023-04-19T03:50:19.539Z,20.46
2023-04-19T03:51:19.596Z,20.46
2023-04-19T03:52:20.551Z,20.46
2023-04-19T03:53:19.707Z,20.46
2023-04-19T03:54:19.752Z,20.46
2023-04-19T03:55:19.810Z,20.46
2023-04-19T03:56:19.854Z,20.45
2023-04-19T03:57:19.912Z,20.45
2023-04-19T03:58:19.967Z,20.46
2023-04-19T03:59:20.033Z,20.46
2023-04-19T04:00:20.090Z,20.46
2023-04-19T04:01:20.141Z,20.45
2023-04-19T04:02:20.262Z,20.45
2023-04-19T04:03:21.213Z,20.45
2023-04-19T04:04:20.763Z,20.45
2023-04-19T04:05:20.418Z,20.46
2023-04-19T04:06:20.407Z,20.45
2023-04-19T04:07:20.457Z,20.45
2023-04-19T04:08:20.520Z,20.46
2023-04-19T04:09:20.584Z,20.45
2023-04-19T04:10:20.623Z,20.46
2023-04-19T04:11:20.674Z,20.45
2023-04-19T04:12:20.739Z,20.45
2023-04-19T04:13:20.795Z,20.45
2023-04-19T04:14:20.843Z,20.45
2023-04-19T04:15:20.892Z,20.45
2023-04-19T04:16:20.993Z,20.45
2023-04-19T04:17:21.071Z,20.45
2023-04-19T04:18:21.055Z,20.45
2023-04-19T04:19:21.116Z,20.45
2023-04-19T04:20:21.177Z,20.45
2023-04-19T04:21:21.225Z,20.44
2023-04-19T04:22:21.281Z,20.44
2023-04-19T04:23:21.337Z,20.43
2023-04-19T04:24:21.384Z,20.45
2023-04-19T04:25:23.217Z,20.44
2023-04-19T04:26:21.551Z,20.44
2023-04-19T04:27:21.543Z,20.44
2023-04-19T04:28:21.605Z,20.44
2023-04-19T04:29:21.664Z,20.44
2023-04-19T04:30:21.741Z,20.44
2023-04-19T04:31:21.800Z,20.44
2023-04-19T04:32:21.880Z,20.45
2023-04-19T04:33:21.903Z,20.45
2023-04-19T04:34:21.949Z,20.44
2023-04-19T04:35:22.020Z,20.45
2023-04-19T04:36:22.088Z,20.44
2023-04-19T04:37:22.128Z,20.45
2023-04-19T04:38:25.100Z,20.44
2023-04-19T04:39:22.188Z,20.44
2023-04-19T04:40:22.200Z,20.44
2023-04-19T04:41:22.878Z,20.44
2023-04-19T04:42:22.232Z,20.44
2023-04-19T04:43:22.241Z,20.44
2023-04-19T04:44:22.254Z,20.43
2023-04-19T04:45:22.273Z,20.43
2023-04-19T04:46:22.311Z,20.43
2023-04-19T04:47:22.338Z,20.44
2023-04-19T04:48:22.302Z,20.43
2023-04-19T04:49:22.320Z,20.43
2023-04-19T04:50:22.319Z,20.43
2023-04-19T04:51:22.332Z,20.43
2023-04-19T04:52:22.353Z,20.43
2023-04-19T04:53:22.379Z,20.42
2023-04-19T04:54:22.375Z,20.43
2023-04-19T04:55:22.387Z,20.43
2023-04-19T04:56:22.420Z,20.42
2023-04-19T04:57:22.414Z,20.43
2023-04-19T04:58:22.418Z,20.42
2023-04-19T04:59:22.426Z,20.44
2023-04-19T05:00:22.444Z,20.43
2023-04-19T05:01:22.481Z,20.42
2023-04-19T05:02:22.643Z,20.43
2023-04-19T05:03:22.479Z,20.42
2023-04-19T05:04:22.537Z,20.42
2023-04-19T05:05:22.496Z,20.42
2023-04-19T05:06:22.495Z,20.41
2023-04-19T05:07:22.542Z,20.41
2023-04-19T05:08:22.520Z,20.42
2023-04-19T05:09:22.532Z,20.42
2023-04-19T05:10:22.564Z,20.42
2023-04-19T05:11:22.551Z,20.43
2023-04-19T05:12:22.565Z,20.42
2023-04-19T05:13:22.595Z,20.42
2023-04-19T05:14:22.599Z,20.42
2023-04-19T05:15:22.611Z,20.42
2023-04-19T05:16:22.672Z,20.41
2023-04-19T05:17:22.629Z,20.42
2023-04-19T05:18:22.639Z,20.42
2023-04-19T05:19:22.675Z,20.42
2023-04-19T05:20:22.655Z,20.42
2023-04-19T05:21:22.677Z,20.41
2023-04-19T05:22:22.702Z,20.42
2023-04-19T05:23:22.714Z,20.42
2023-04-19T05:24:22.765Z,20.42
2023-04-19T05:25:22.830Z,20.42
2023-04-19T05:26:22.881Z,20.42
2023-04-19T05:27:22.936Z,20.44
2023-04-19T05:28:23.036Z,20.46
2023-04-19T05:29:23.049Z,20.48
2023-04-19T05:30:23.111Z,20.49
2023-04-19T05:31:23.228Z,20.52
2023-04-19T05:32:23.227Z,20.55
2023-04-19T05:33:23.250Z,20.59
2023-04-19T05:34:23.396Z,20.62
2023-04-19T05:35:23.274Z,20.65
2023-04-19T05:36:23.263Z,20.67
2023-04-19T05:37:23.292Z,20.69
2023-04-19T05:38:23.329Z,20.72
2023-04-19T05:39:23.374Z,20.74
2023-04-19T05:40:23.376Z,20.78
2023-04-19T05:41:23.401Z,20.79
2023-04-19T05:42:23.486Z,20.80
2023-04-19T05:43:24.449Z,20.82
2023-04-19T05:44:23.441Z,20.84
2023-04-19T05:45:23.438Z,20.85
2023-04-19T05:46:23.470Z,20.87
2023-04-19T05:47:23.491Z,20.89
2023-04-19T05:48:23.400Z,20.90
2023-04-19T05:49:23.431Z,20.92
2023-04-19T05:50:23.428Z,20.92
2023-04-19T05:51:23.397Z,20.93
2023-04-19T05:52:24.136Z,20.94
2023-04-19T05:53:23.478Z,20.96
2023-04-19T05:54:23.519Z,20.97
2023-04-19T05:55:24.656Z,20.98
2023-04-19T05:56:23.499Z,21.00
2023-04-19T05:57:23.496Z,21.01
2023-04-19T05:58:23.494Z,21.03
2023-04-19T05:59:23.534Z,21.04
2023-04-19T06:00:23.501Z,21.05
2023-04-19T06:01:23.459Z,21.08
2023-04-19T06:02:23.569Z,21.10
2023-04-19T06:03:23.643Z,21.12
2023-04-19T06:04:24.066Z,21.13
2023-04-19T06:05:23.583Z,21.15
2023-04-19T06:06:23.589Z,21.15
2023-04-19T06:07:31.695Z,21.16
2023-04-19T06:08:24.385Z,21.16
2023-04-19T06:09:23.370Z,21.18
2023-04-19T06:10:28.951Z,21.18
2023-04-19T06:11:29.242Z,21.20
2023-04-19T06:12:24.351Z,21.21
2023-04-19T06:13:23.309Z,21.22
2023-04-19T06:14:23.291Z,21.24
2023-04-19T06:15:23.297Z,21.25
2023-04-19T06:16:23.329Z,21.27
2023-04-19T06:17:23.313Z,21.29
2023-04-19T06:18:23.255Z,21.31
2023-04-19T06:19:23.245Z,21.33
2023-04-19T06:20:23.244Z,21.35
2023-04-19T06:21:23.215Z,21.36
2023-04-19T06:22:26.171Z,21.38
2023-04-19T06:23:23.208Z,21.39
2023-04-19T06:24:23.200Z,21.42
2023-04-19T06:25:23.190Z,21.41
2023-04-19T06:26:24.147Z,21.45
2023-04-19T06:27:23.288Z,21.48
2023-04-19T06:28:23.177Z,21.48
2023-04-19T06:29:23.288Z,21.46
2023-04-19T06:30:23.159Z,21.44
2023-04-19T06:31:23.222Z,21.41
2023-04-19T06:32:23.219Z,21.40
2023-04-19T06:33:23.158Z,21.39
2023-04-19T06:34:24.699Z,21.37
2023-04-19T06:35:23.150Z,21.37
2023-04-19T06:36:24.637Z,21.36
2023-04-19T06:37:23.088Z,21.36
2023-04-19T06:38:23.169Z,21.37
2023-04-19T06:39:23.132Z,21.38
2023-04-19T06:40:23.047Z,21.37
2023-04-19T06:41:23.100Z,21.38
2023-04-19T06:42:23.018Z,21.39
2023-04-19T06:43:23.009Z,21.40
2023-04-19T06:44:22.988Z,21.41
2023-04-19T06:45:22.982Z,21.40
2023-04-19T06:46:23.102Z,21.38
2023-04-19T06:47:23.020Z,21.37
2023-04-19T06:48:22.932Z,21.34
2023-04-19T06:49:23.717Z,21.32
2023-04-19T06:50:22.926Z,21.31
2023-04-19T06:51:22.886Z,21.31
2023-04-19T06:52:22.866Z,21.31
2023-04-19T06:53:22.852Z,21.31
2023-04-19T06:54:22.834Z,21.32
2023-04-19T06:55:22.826Z,21.32
2023-04-19T06:56:22.805Z,21.33
2023-04-19T06:57:22.785Z,21.32
2023-04-19T06:58:22.837Z,21.31
2023-04-19T06:59:22.777Z,21.30
2023-04-19T07:00:22.787Z,21.30
2023-04-19T07:01:22.791Z,21.29
2023-04-19T07:02:24.081Z,21.27
2023-04-19T07:03:22.816Z,21.27
2023-04-19T07:04:23.128Z,21.26
2023-04-19T07:05:22.683Z,21.25
2023-04-19T07:06:22.730Z,21.26
2023-04-19T07:07:22.661Z,21.25
2023-04-19T07:08:22.640Z,21.23
2023-04-19T07:09:22.625Z,21.23
2023-04-19T07:10:22.611Z,21.22
2023-04-19T07:11:22.956Z,21.22
2023-04-19T07:12:23.126Z,21.22
2023-04-19T07:13:22.639Z,21.22
2023-04-19T07:14:22.530Z,21.22
2023-04-19T07:15:22.523Z,21.24
2023-04-19T07:16:22.507Z,21.25
2023-04-19T07:17:22.512Z,21.30
2023-04-19T07:18:22.455Z,21.33
2023-04-19T07:19:22.440Z,21.34
2023-04-19T07:20:22.422Z,21.34
2023-04-19T07:21:22.396Z,21.35
2023-04-19T07:22:22.396Z,21.34
2023-04-19T07:23:22.381Z,21.35
2023-04-19T07:24:23.158Z,21.34
2023-04-19T07:25:22.362Z,21.34
2023-04-19T07:26:22.384Z,21.33
2023-04-19T07:27:23.164Z,21.33
2023-04-19T07:28:22.469Z,21.31
2023-04-19T07:29:22.504Z,21.32
2023-04-19T07:30:22.556Z,21.31
2023-04-19T07:31:22.595Z,21.30
2023-04-19T07:32:22.701Z,21.30
2023-04-19T07:33:23.026Z,21.29
2023-04-19T07:34:22.733Z,21.28
2023-04-19T07:35:22.774Z,21.27
2023-04-19T07:36:22.829Z,21.26
2023-04-19T07:37:22.891Z,21.26
2023-04-19T07:38:22.947Z,21.26
2023-04-19T07:39:22.991Z,21.25
2023-04-19T07:40:23.044Z,21.24
2023-04-19T07:41:23.100Z,21.23
2023-04-19T07:42:24.101Z,21.21
2023-04-19T07:43:23.096Z,21.22
2023-04-19T07:44:23.095Z,21.20
2023-04-19T07:45:23.092Z,21.19
2023-04-19T07:46:23.137Z,21.19
2023-04-19T07:47:23.072Z,21.18
2023-04-19T07:48:23.078Z,21.18
2023-04-19T07:49:23.185Z,21.17
2023-04-19T07:50:23.270Z,21.16
2023-04-19T07:51:23.078Z,21.15
2023-04-19T07:52:23.120Z,21.14
2023-04-19T07:53:23.192Z,21.13
2023-04-19T07:54:23.252Z,21.13
2023-04-19T07:55:23.327Z,21.12
2023-04-19T07:56:23.384Z,21.11
2023-04-19T07:57:23.423Z,21.10
2023-04-19T07:58:23.518Z,21.09
2023-04-19T07:59:23.584Z,21.09
2023-04-19T08:00:23.618Z,21.08
2023-04-19T08:01:23.780Z,21.08
2023-04-19T08:02:24.750Z,21.07
2023-04-19T08:03:24.064Z,21.07
2023-04-19T08:04:24.292Z,21.06
2023-04-19T08:05:24.064Z,21.06
2023-04-19T08:06:23.967Z,21.05
2023-04-19T08:07:24.040Z,21.05
2023-04-19T08:08:24.093Z,21.05
2023-04-19T08:09:24.188Z,21.05
2023-04-19T08:10:24.218Z,21.04
2023-04-19T08:11:24.273Z,21.05
2023-04-19T08:12:35.155Z,21.04
2023-04-19T08:13:25.317Z,21.03
2023-04-19T08:14:37.443Z,21.03
2023-04-19T08:16:03.650Z,21.03
2023-04-19T08:17:06.563Z,21.02
2023-04-19T08:17:29.167Z,21.02
2023-04-19T08:18:25.323Z,21.01
2023-04-19T08:19:24.252Z,21.01
2023-04-19T08:20:24.258Z,21.01
2023-04-19T08:21:28.622Z,21.01
2023-04-19T08:22:25.216Z,21.00
2023-04-19T08:23:29.478Z,21.01
2023-04-19T08:24:25.294Z,21.01
2023-04-19T08:25:24.199Z,21.01
2023-04-19T08:26:24.220Z,21.00
2023-04-19T08:27:24.185Z,21.01
2023-04-19T08:28:24.181Z,21.00
2023-04-19T08:29:24.192Z,20.99
2023-04-19T08:30:24.181Z,21.00
2023-04-19T08:31:24.193Z,20.99
2023-04-19T08:32:24.201Z,20.98
2023-04-19T08:33:24.230Z,20.99
2023-04-19T08:34:24.281Z,20.99
2023-04-19T08:35:24.384Z,20.99
2023-04-19T08:36:35.482Z,21.00
2023-04-19T08:37:25.401Z,20.99
2023-04-19T08:38:24.402Z,21.00
2023-04-19T08:39:32.213Z,21.00
2023-04-19T08:40:25.382Z,21.00
2023-04-19T08:41:24.434Z,20.99
2023-04-19T08:42:35.548Z,21.00
2023-04-19T08:43:25.375Z,20.99
2023-04-19T08:44:34.983Z,21.00
2023-04-19T08:45:27.534Z,20.98
2023-04-19T08:46:24.416Z,20.98
2023-04-19T08:47:32.281Z,20.98
2023-04-19T08:48:25.342Z,20.98
2023-04-19T08:49:24.292Z,20.98
2023-04-19T08:50:33.412Z,20.98
2023-04-19T08:51:25.347Z,20.97
2023-04-19T08:52:24.268Z,20.98
2023-04-19T08:53:26.009Z,20.97
2023-04-19T08:54:24.262Z,20.97
2023-04-19T08:55:24.258Z,20.97
2023-04-19T08:56:34.919Z,20.97
2023-04-19T08:57:25.245Z,20.97
2023-04-19T08:58:36.501Z,20.97
2023-04-19T08:59:25.337Z,20.97
2023-04-19T09:00:24.234Z,20.97
2023-04-19T09:01:33.587Z,20.97
2023-04-19T09:02:25.417Z,20.97
2023-04-19T09:03:24.430Z,20.97
2023-04-19T09:04:36.533Z,20.97
2023-04-19T09:05:24.298Z,20.97
2023-04-19T09:06:24.503Z,20.98
2023-04-19T09:07:24.332Z,20.98
2023-04-19T09:08:24.176Z,20.97
2023-04-19T09:09:35.372Z,20.97
2023-04-19T09:10:25.149Z,20.98
2023-04-19T09:11:24.158Z,20.98
2023-04-19T09:12:24.142Z,20.98
2023-04-19T09:13:24.137Z,20.98
2023-04-19T09:14:24.704Z,20.98
2023-04-19T09:15:24.213Z,20.98
2023-04-19T09:16:24.198Z,20.98
2023-04-19T09:17:24.222Z,20.98
2023-04-19T09:18:24.097Z,20.98
2023-04-19T09:19:25.441Z,20.98
2023-04-19T09:20:24.161Z,20.98
2023-04-19T09:21:24.182Z,20.98
2023-04-19T09:22:24.362Z,20.98
2023-04-19T09:23:24.259Z,20.97
2023-04-19T09:24:24.301Z,20.97
2023-04-19T09:25:43.700Z,20.97
2023-04-19T09:26:25.340Z,20.97
2023-04-19T09:27:24.321Z,20.96
2023-04-19T09:28:24.314Z,20.96
2023-04-19T09:29:24.306Z,20.97
2023-04-19T09:30:32.400Z,20.96
2023-04-19T09:32:25.391Z,20.96
2023-04-19T09:33:24.388Z,20.96
2023-04-19T09:34:24.274Z,20.96
2023-04-19T09:35:24.233Z,20.96
2023-04-19T09:36:24.250Z,20.96
2023-04-19T09:38:24.193Z,20.96
2023-04-19T09:39:24.289Z,20.94
2023-04-19T09:40:24.252Z,20.95
2023-04-19T09:41:24.168Z,20.95
2023-04-19T09:42:47.362Z,20.95
2023-04-19T09:43:53.241Z,20.94
2023-04-19T09:46:24.147Z,20.93
2023-04-19T09:47:24.151Z,20.93
2023-04-19T09:48:24.119Z,20.93
2023-04-19T09:49:33.620Z,20.93
2023-04-19T09:50:27.495Z,20.93
2023-04-19T09:51:24.049Z,20.92
2023-04-19T09:52:24.054Z,20.93
2023-04-19T09:53:24.073Z,20.93
2023-04-19T09:54:24.033Z,20.92
2023-04-19T09:55:27.531Z,20.93
2023-04-19T09:56:24.009Z,20.92
2023-04-19T09:57:24.000Z,20.93
2023-04-19T09:58:25.053Z,20.91
2023-04-19T09:59:24.144Z,20.92
2023-04-19T10:00:23.988Z,20.92
2023-04-19T10:01:24.018Z,20.92
2023-04-19T10:02:24.063Z,20.92
2023-04-19T10:03:24.041Z,20.92
2023-04-19T10:04:29.389Z,20.92
2023-04-19T10:05:25.049Z,20.91
2023-04-19T10:07:30.513Z,20.91
2023-04-19T10:08:24.915Z,20.90
2023-04-19T10:09:23.927Z,20.90
2023-04-19T10:10:33.028Z,20.90
2023-04-19T10:11:24.896Z,20.90
2023-04-19T10:12:46.274Z,20.89
2023-04-19T10:13:26.585Z,20.89
2023-04-19T10:14:23.857Z,20.88
2023-04-19T10:15:23.844Z,20.89
2023-04-19T10:16:23.889Z,20.89
2023-04-19T10:17:23.879Z,20.89
2023-04-19T10:18:23.841Z,20.88
2023-04-19T10:19:23.820Z,20.88
2023-04-19T10:20:23.858Z,20.87
2023-04-19T10:21:23.811Z,20.88
2023-04-19T10:22:23.794Z,20.88
2023-04-19T10:23:23.815Z,20.88
2023-04-19T10:24:23.781Z,20.87
2023-04-19T10:25:23.789Z,20.87
2023-04-19T10:26:24.738Z,20.87
2023-04-19T10:27:25.686Z,20.87
2023-04-19T10:28:23.774Z,20.87
2023-04-19T10:29:23.781Z,20.86
2023-04-19T10:30:23.782Z,20.86
2023-04-19T10:31:23.905Z,20.86
2023-04-19T10:32:23.782Z,20.86
2023-04-19T10:33:23.758Z,20.85
2023-04-19T10:34:24.757Z,20.85
2023-04-19T10:35:23.755Z,20.85
2023-04-19T10:36:23.750Z,20.85
2023-04-19T10:37:23.745Z,20.85
2023-04-19T10:38:23.737Z,20.85
2023-04-19T10:39:23.737Z,20.84
2023-04-19T10:40:23.731Z,20.84
2023-04-19T10:41:23.718Z,20.85
2023-04-19T10:42:23.738Z,20.84
2023-04-19T10:43:23.696Z,20.84
2023-04-19T10:44:23.696Z,20.84
2023-04-19T10:45:23.694Z,20.83
2023-04-19T10:46:23.733Z,20.83
2023-04-19T10:47:23.698Z,20.83
2023-04-19T10:48:23.683Z,20.83
2023-04-19T10:49:23.661Z,20.83
2023-04-19T10:50:23.687Z,20.82
2023-04-19T10:51:23.689Z,20.82
2023-04-19T10:52:23.711Z,20.81
2023-04-19T10:53:23.708Z,20.82
2023-04-19T10:54:23.744Z,20.81
2023-04-19T10:55:23.718Z,20.81
2023-04-19T10:56:23.765Z,20.81
2023-04-19T10:57:23.754Z,20.81
2023-04-19T10:58:23.761Z,20.81
2023-04-19T10:59:23.798Z,20.80
2023-04-19T11:00:23.782Z,20.80
2023-04-19T11:01:23.862Z,20.80
2023-04-19T11:02:23.954Z,20.80
2023-04-19T11:03:23.989Z,20.79
2023-04-19T11:04:23.964Z,20.79
2023-04-19T11:05:23.822Z,20.78
2023-04-19T11:06:23.831Z,20.78
2023-04-19T11:07:23.858Z,20.78
2023-04-19T11:08:23.872Z,20.77
2023-04-19T11:09:23.879Z,20.76
2023-04-19T11:10:23.980Z,20.77
2023-04-19T11:11:23.872Z,20.76
2023-04-19T11:12:23.875Z,20.76
2023-04-19T11:13:23.885Z,20.75
2023-04-19T11:14:23.888Z,20.75
2023-04-19T11:15:23.895Z,20.75
2023-04-19T11:16:31.210Z,20.75
2023-04-19T11:17:24.959Z,20.74
2023-04-19T11:18:23.928Z,20.73
2023-04-19T11:19:23.897Z,20.74
2023-04-19T11:20:23.887Z,20.73
2023-04-19T11:21:23.895Z,20.73
2023-04-19T11:22:23.904Z,20.73
2023-04-19T11:23:23.884Z,20.73
2023-04-19T11:24:23.875Z,20.73
2023-04-19T11:25:23.879Z,20.73
2023-04-19T11:26:23.877Z,20.72
2023-04-19T11:27:23.884Z,20.72
2023-04-19T11:28:23.879Z,20.73
2023-04-19T11:29:23.858Z,20.72
2023-04-19T11:30:23.863Z,20.71
2023-04-19T11:31:23.922Z,20.71
2023-04-19T11:32:23.896Z,20.70
2023-04-19T11:33:23.855Z,20.71
2023-04-19T11:34:23.834Z,20.70
2023-04-19T11:35:23.854Z,20.70
2023-04-19T11:36:23.831Z,20.69
2023-04-19T11:37:23.843Z,20.70
2023-04-19T11:38:23.831Z,20.69
2023-04-19T11:39:23.819Z,20.69
2023-04-19T11:40:23.909Z,20.68
2023-04-19T11:41:23.805Z,20.68
2023-04-19T11:42:23.969Z,20.68
2023-04-19T11:43:23.811Z,20.68
2023-04-19T11:44:23.839Z,20.68
2023-04-19T11:45:29.797Z,20.67
2023-04-19T11:46:24.820Z,20.67
2023-04-19T11:47:23.787Z,20.67
2023-04-19T11:48:23.776Z,20.67
2023-04-19T11:49:23.770Z,20.66
2023-04-19T11:50:23.773Z,20.66
2023-04-19T11:51:23.772Z,20.66
2023-04-19T11:52:23.782Z,20.66
2023-04-19T11:53:23.839Z,20.66
2023-04-19T11:54:23.737Z,20.66
2023-04-19T11:55:23.730Z,20.65
2023-04-19T11:56:23.738Z,20.64
2023-04-19T11:57:23.753Z,20.65
2023-04-19T11:58:23.732Z,20.65
2023-04-19T11:59:23.721Z,20.64
2023-04-19T12:00:23.721Z,20.64
2023-04-19T12:01:23.715Z,20.64
2023-04-19T12:02:23.850Z,20.63
2023-04-19T12:03:25.731Z,20.64
2023-04-19T12:04:23.851Z,20.64
2023-04-19T12:05:23.919Z,20.64
2023-04-19T12:06:23.724Z,20.63
2023-04-19T12:07:23.714Z,20.62
2023-04-19T12:08:23.707Z,20.63
2023-04-19T12:09:24.364Z,20.63
2023-04-19T12:10:23.703Z,20.62
2023-04-19T12:11:23.709Z,20.62
2023-04-19T12:12:23.703Z,20.62
2023-04-19T12:13:23.693Z,20.61
2023-04-19T12:14:23.690Z,20.61
2023-04-19T12:15:25.825Z,20.61
2023-04-19T12:16:23.692Z,20.60
2023-04-19T12:17:23.719Z,20.60
2023-04-19T12:18:23.734Z,20.60
2023-04-19T12:19:23.752Z,20.59
2023-04-19T12:20:23.698Z,20.59
2023-04-19T12:21:23.706Z,20.59
2023-04-19T12:22:23.677Z,20.59
2023-04-19T12:23:23.724Z,20.59
2023-04-19T12:24:23.663Z,20.59
2023-04-19T12:25:23.663Z,20.59
2023-04-19T12:26:23.666Z,20.59
2023-04-19T12:27:23.684Z,20.59
2023-04-19T12:28:23.670Z,20.58
2023-04-19T12:29:23.664Z,20.58
2023-04-19T12:30:23.662Z,20.58
2023-04-19T12:31:23.736Z,20.57
2023-04-19T12:32:23.779Z,20.57
2023-04-19T12:33:24.021Z,20.57
2023-04-19T12:34:23.661Z,20.57
2023-04-19T12:35:23.644Z,20.57
2023-04-19T12:36:23.648Z,20.56
2023-04-19T12:37:23.653Z,20.56
2023-04-19T12:38:23.627Z,20.57
2023-04-19T12:39:23.633Z,20.56
2023-04-19T12:40:23.623Z,20.56
2023-04-19T12:41:23.654Z,20.56
2023-04-19T12:42:23.630Z,20.56
2023-04-19T12:43:23.631Z,20.56
2023-04-19T12:44:23.614Z,20.56
2023-04-19T12:45:23.626Z,20.56
2023-04-19T12:46:23.715Z,20.56
2023-04-19T12:47:23.754Z,20.55
2023-04-19T12:48:23.624Z,20.55
2023-04-19T12:49:23.620Z,20.54
2023-04-19T12:50:23.626Z,20.55
2023-04-19T12:51:23.648Z,20.55
2023-04-19T12:52:23.615Z,20.54
2023-04-19T12:53:23.633Z,20.54
2023-04-19T12:54:23.616Z,20.53
2023-04-19T12:55:23.709Z,20.54
2023-04-19T12:56:23.624Z,20.53
2023-04-19T12:57:23.616Z,20.53